Time;durP1;ratioP1;P1;durP2;ratioP2;P2;SDS_P1;SDS_P2;PMS_P1;PMS_P2;Temp;Humidity;BMP_temperature;BMP_pressure;BME280_temperature;BME280_humidity;BME280_pressure;Samples;Min_cycle;Max_cycle;Signal;HPM_P1;HPM_P2
2021/12/05 00:23:16;;;;;;;6.78;1.92;;;;;;;5.07;74.98;98752.31;10436081;28;20106;-63
2021/12/05 00:33:34;;;;;;;7.75;3.60;;;;;;;5.18;75.25;98764.66;10435238;28;20148;-63
2021/12/05 01:10:12;;;;;;;7.15;1.83;;;;;;;5.09;75.35;98789.16;10432522;28;20136;-63
2021/12/05 01:15:15;;;;;;;2.92;1.58;;;;;;;5.18;75.12;98798.97;10436788;28;20547;-63
2021/12/05 01:20:18;;;;;;;5.63;1.98;;;;;;;5.02;75.65;98783.53;10415493;28;20503;-63
2021/12/05 01:25:39;;;;;;;8.27;1.98;;;;;;;5.01;75.51;98791.56;10414320;28;20136;-63
2021/12/05 01:36:01;;;;;;;;;;;;;;;4.80;76.52;98778.31;10433530;28;20408;-63
2021/12/05 01:46:32;;;;;;;4.63;1.52;;;;;;;4.66;77.52;98766.25;10431003;28;20045;-63
2021/12/05 02:33:54;;;;;;;6.03;1.75;;;;;;;4.70;78.28;98731.59;10430572;28;20144;-63
2021/12/05 02:39:15;;;;;;;5.85;2.05;;;;;;;4.78;78.44;98738.88;10433110;28;20096;-62
2021/12/05 02:44:22;;;;;;;5.90;1.65;;;;;;;4.73;78.60;98741.06;10420554;28;20076;-63
2021/12/05 02:49:25;;;;;;;8.20;1.80;;;;;;;4.80;78.54;98752.78;10416988;28;20128;-63
2021/12/05 02:54:34;;;;;;;6.00;1.95;;;;;;;4.63;78.84;98732.22;10430258;28;20443;-63
2021/12/05 03:04:41;;;;;;;6.72;1.88;;;;;;;4.54;79.66;98753.06;10429890;28;20131;-62
2021/12/05 03:09:43;;;;;;;7.40;2.17;;;;;;;4.48;80.08;98748.28;10427192;28;20052;-62
2021/12/05 03:14:46;;;;;;;6.13;1.90;;;;;;;4.48;79.99;98753.56;10414376;28;20127;-62
2021/12/05 03:19:48;;;;;;;3.63;1.65;;;;;;;4.51;80.58;98758.56;10430403;28;20120;-63
2021/12/05 03:24:49;;;;;;;6.68;2.30;;;;;;;4.43;80.23;98756.56;10427319;28;20497;-63
2021/12/05 03:29:51;;;;;;;6.40;1.50;;;;;;;4.42;80.38;98767.22;10429199;28;20503;-62
2021/12/05 03:34:52;;;;;;;8.57;2.20;;;;;;;4.38;80.49;98752.59;10428993;28;20128;-64
2021/12/05 03:39:54;;;;;;;6.07;2.15;;;;;;;4.37;80.74;98740.41;10426421;28;20057;-62
2021/12/05 03:44:55;;;;;;;5.00;1.92;;;;;;;4.34;80.39;98749.38;10418431;28;20044;-62
2021/12/05 03:49:57;;;;;;;6.18;1.92;;;;;;;4.23;80.60;98750.22;10437129;28;20567;-63
2021/12/05 03:54:58;;;;;;;5.07;1.75;;;;;;;4.21;81.22;98760.03;10436539;28;20131;-62
2021/12/05 04:00:00;;;;;;;7.07;1.95;;;;;;;4.27;80.48;98765.78;10436877;28;20053;-63
2021/12/05 04:05:03;;;;;;;5.30;1.90;;;;;;;4.23;80.16;98758.13;10418756;28;20132;-62
2021/12/05 04:10:06;;;;;;;6.30;2.00;;;;;;;4.13;80.16;98733.47;10435632;28;20048;-63
2021/12/05 04:15:10;;;;;;;4.45;2.03;;;;;;;4.17;79.91;98761.22;10424146;28;20068;-62
2021/12/05 04:20:14;;;;;;;3.63;1.70;;;;;;;4.14;80.19;98760.63;10439348;28;20069;-63
2021/12/05 04:25:17;;;;;;;6.77;2.07;;;;;;;3.99;80.79;98760.00;10435760;28;20132;-63
2021/12/05 04:30:23;;;;;;;5.38;2.15;;;;;;;4.07;80.38;98760.28;10434134;28;20135;-63
2021/12/05 04:35:24;;;;;;;8.32;2.03;;;;;;;3.95;80.27;98748.03;10436099;28;20540;-62
2021/12/05 04:40:26;;;;;;;5.18;2.67;;;;;;;4.02;80.03;98741.34;10435795;28;20047;-62
2021/12/05 04:45:29;;;;;;;3.78;2.40;;;;;;;4.14;80.07;98765.91;10451152;28;20045;-63
2021/12/05 04:50:33;;;;;;;4.25;1.67;;;;;;;4.16;80.19;98762.19;10435371;28;20056;-63
2021/12/05 04:55:35;;;;;;;4.43;1.35;;;;;;;4.15;79.77;98763.13;10416478;28;20059;-63
2021/12/05 05:00:40;;;;;;;5.43;1.60;;;;;;;4.30;79.75;98757.66;10417783;28;20044;-62
2021/12/05 05:05:47;;;;;;;4.43;1.38;;;;;;;4.43;78.31;98772.38;10449092;22;20513;-59
2021/12/05 05:10:49;;;;;;;6.05;2.03;;;;;;;4.50;78.08;98775.34;10406389;28;20243;-57
2021/12/05 05:15:50;;;;;;;6.07;1.58;;;;;;;4.49;78.13;98784.22;10424348;28;20123;-58
2021/12/05 05:21:10;;;;;;;6.07;1.40;;;;;;;4.54;78.09;98779.41;10423238;28;20090;-58
2021/12/05 05:47:37;;;;;;;5.85;1.98;;;;;;;4.46;78.72;98779.19;10421585;28;20110;-58
2021/12/05 05:52:39;;;;;;;6.00;2.65;;;;;;;4.45;79.59;98785.41;10422849;28;20514;-58
2021/12/05 06:08:09;;;;;;;6.35;2.10;;;;;;;4.43;81.14;98797.88;10421569;28;20501;-58
2021/12/05 06:13:10;;;;;;;6.55;1.70;;;;;;;4.49;82.52;98792.13;10421817;28;20065;-59
2021/12/05 06:18:12;;;;;;;5.88;2.30;;;;;;;4.56;81.58;98788.06;10421413;28;20508;-58
2021/12/05 06:23:14;;;;;;;4.28;2.03;;;;;;;4.70;82.04;98794.00;10421056;28;20233;-58
2021/12/05 06:28:18;;;;;;;4.60;2.10;;;;;;;4.80;81.05;98800.22;10403799;28;20474;-58
2021/12/05 06:48:52;;;;;;;4.63;1.77;;;;;;;4.85;81.53;98815.69;10420617;28;20127;-58
2021/12/05 06:53:55;;;;;;;5.40;2.00;;;;;;;4.82;81.87;98835.25;10420057;28;20069;-58
2021/12/05 06:58:57;;;;;;;3.75;1.77;;;;;;;4.88;81.73;98849.72;10419067;28;20081;-58
2021/12/05 07:04:06;;;;;;;5.75;2.33;;;;;;;4.86;81.72;98857.75;10413004;28;20057;-58
2021/12/05 07:09:09;;;;;;;4.93;2.05;;;;;;;4.89;81.68;98862.78;10394610;28;20183;-59
2021/12/05 07:19:46;;;;;;;3.85;1.92;;;;;;;4.93;81.38;98864.22;10403197;28;20047;-57
2021/12/05 07:24:50;;;;;;;4.93;2.67;;;;;;;4.95;81.21;98872.00;10404810;28;20151;-57
2021/12/05 07:40:32;;;;;;;4.80;1.85;;;;;;;4.90;81.45;98872.38;10406590;28;20126;-57
2021/12/05 07:45:45;;;;;;;5.68;1.98;;;;;;;4.95;80.90;98878.13;10404796;28;20053;-57
2021/12/05 07:51:08;;;;;;;6.38;2.00;;;;;;;5.05;80.88;98883.50;10406332;28;20498;-58
2021/12/05 07:56:16;;;;;;;4.88;1.50;;;;;;;5.23;80.27;98873.28;10394232;28;20061;-57
2021/12/05 08:17:16;;;;;;;2.92;1.33;;;;;;;5.35;79.76;98875.91;10404833;28;20180;-57
2021/12/05 08:22:19;;;;;;;2.83;1.92;;;;;;;5.44;79.82;98891.00;10392135;28;20575;-59
2021/12/05 08:27:21;;;;;;;2.90;1.75;;;;;;;5.55;79.90;98895.41;10404335;28;20412;-57
2021/12/05 08:32:32;;;;;;;4.75;1.95;;;;;;;5.58;79.33;98890.69;10402093;28;20136;-57
2021/12/05 08:38:14;;;;;;;2.10;1.30;;;;;;;5.66;78.99;98898.84;10402099;28;20053;-57
2021/12/05 09:26:03;;;;;;;4.18;1.67;;;;;;;5.69;79.94;98912.75;10401457;28;20083;-57
2021/12/05 10:40:12;;;;;;;3.13;1.15;;;;;;;9.27;62.67;98897.81;10275628;28;20065;-59
2021/12/05 10:45:19;;;;;;;3.60;1.33;;;;;;;11.77;54.89;98887.66;10393318;28;20533;-59
2021/12/05 10:50:38;;;;;;;3.00;1.30;;;;;;;14.77;47.73;98893.06;10391310;28;20140;-60
2021/12/05 10:55:39;;;;;;;3.53;1.48;;;;;;;16.09;44.80;98896.69;10391775;28;20493;-60
2021/12/05 11:00:41;;;;;;;1.98;0.70;;;;;;;17.89;37.70;98875.38;10393646;28;20649;-60
2021/12/05 11:05:44;;;;;;;1.92;0.70;;;;;;;18.92;35.45;98879.53;10393847;28;20526;-58
2021/12/05 11:10:45;;;;;;;2.07;0.77;;;;;;;17.39;39.20;98877.50;10388665;22;20144;-66
2021/12/05 11:15:46;;;;;;;1.92;0.73;;;;;;;18.59;35.17;98874.19;10377285;28;21040;-63
2021/12/05 11:20:48;;;;;;;1.85;0.65;;;;;;;18.03;37.12;98881.63;10351629;28;20056;-63
2021/12/05 11:25:50;;;;;;;2.78;0.80;;;;;;;18.95;35.16;98879.09;10352073;28;20124;-64
2021/12/05 11:30:51;;;;;;;1.42;0.60;;;;;;;17.24;37.47;98891.09;10346769;28;20060;-62
2021/12/05 11:35:58;;;;;;;1.63;0.40;;;;;;;14.44;42.55;98898.72;10363124;28;20539;-63
2021/12/05 11:41:07;;;;;;;4.10;2.30;;;;;;;13.01;47.61;98894.56;10355717;28;20488;-63
2021/12/05 11:46:19;;;;;;;1.50;0.75;;;;;;;12.96;47.72;98893.44;10363500;28;20547;-62
2021/12/05 11:51:21;;;;;;;3.10;0.88;;;;;;;13.45;47.27;98903.94;10357975;28;20041;-63
2021/12/05 11:56:34;;;;;;;2.60;0.85;;;;;;;12.40;47.63;98909.38;10357018;28;20038;-64
2021/12/05 12:01:41;;;;;;;1.30;0.80;;;;;;;11.00;51.82;98909.06;10359886;28;20052;-64
2021/12/05 12:06:44;;;;;;;2.78;0.77;;;;;;;11.77;51.02;98898.31;10366286;28;20045;-64
2021/12/05 12:11:47;;;;;;;1.50;0.60;;;;;;;18.57;37.25;98882.47;10361845;28;20065;-63
2021/12/05 12:16:50;;;;;;;2.30;0.80;;;;;;;21.65;30.10;98880.34;10366773;28;20406;-64
2021/12/05 12:21:57;;;;;;;;;;;;;;;22.99;28.00;98878.19;10364973;28;20223;-66
2021/12/05 12:26:58;;;;;;;2.72;0.57;;;;;;;23.05;26.77;98879.94;10356104;28;19929;-64
2021/12/05 12:32:11;;;;;;;2.92;0.50;;;;;;;22.02;27.61;98881.06;10370713;28;20049;-64
2021/12/05 12:37:13;;;;;;;1.53;0.70;;;;;;;16.87;34.71;98887.81;10369801;28;20235;-65
2021/12/05 12:42:18;;;;;;;1.92;0.73;;;;;;;16.42;37.04;98880.03;10366320;28;20591;-68
2021/12/05 12:47:29;;;;;;;1.38;0.70;;;;;;;14.02;41.63;98878.66;10363462;28;20374;-63
2021/12/05 12:52:31;;;;;;;0.95;0.40;;;;;;;15.45;38.54;98879.50;10367646;28;20567;-63
2021/12/05 12:57:34;;;;;;;2.58;0.63;;;;;;;19.94;31.32;98873.50;10367649;28;20480;-63
2021/12/05 13:13:28;;;;;;;2.22;1.20;;;;;;;16.53;35.62;98882.19;10354926;28;20057;-65
2021/12/05 13:18:34;;;;;;;2.00;0.65;;;;;;;16.44;36.34;98894.13;10349414;28;20049;-62
2021/12/05 13:23:42;;;;;;;3.00;0.93;;;;;;;20.25;29.98;98893.41;10366914;28;20403;-63
2021/12/05 13:28:55;;;;;;;1.13;0.52;;;;;;;18.87;32.08;98898.19;10362479;28;20053;-64
2021/12/05 13:34:20;;;;;;;3.53;1.30;;;;;;;21.74;28.60;98897.91;10364284;28;20046;-62
2021/12/05 13:39:29;;;;;;;2.35;0.68;;;;;;;18.99;31.35;98901.91;10388970;28;20053;-65
2021/12/05 13:44:58;;;;;;;2.00;0.70;;;;;;;14.41;39.99;98912.47;10349778;28;20046;-63
2021/12/05 13:50:23;;;;;;;2.72;0.98;;;;;;;12.22;45.98;98921.06;10365120;28;20607;-62
2021/12/05 13:55:37;;;;;;;3.08;1.15;;;;;;;11.22;48.93;98921.00;10314920;28;20060;-62
2021/12/05 14:01:15;;;;;;;1.58;0.93;;;;;;;10.77;50.33;98928.25;10347906;28;20068;-61
2021/12/05 14:06:27;;;;;;;3.15;1.08;;;;;;;10.22;52.05;98943.47;10320697;28;20045;-61
2021/12/05 14:11:31;;;;;;;2.90;1.75;;;;;;;9.95;52.50;98943.53;10362607;28;20041;-61
2021/12/05 14:16:35;;;;;;;3.33;1.33;;;;;;;9.92;53.03;98949.97;10362100;28;21086;-61
2021/12/05 14:21:46;;;;;;;2.20;0.90;;;;;;;9.89;53.03;98950.28;10346797;28;20052;-61
2021/12/05 14:26:49;;;;;;;2.88;1.52;;;;;;;9.76;52.28;98963.97;10357910;28;20048;-61
2021/12/05 14:31:58;;;;;;;1.05;0.77;;;;;;;9.51;53.74;98971.63;10357157;28;20052;-61
2021/12/05 14:37:04;;;;;;;3.33;1.05;;;;;;;9.28;54.42;98992.44;10360595;28;20053;-61
2021/12/05 14:42:09;;;;;;;1.70;0.40;;;;;;;8.79;55.41;98995.25;10359079;28;20240;-65
2021/12/05 14:47:14;;;;;;;1.10;0.65;;;;;;;8.65;55.95;98996.53;10371730;28;20573;-65
2021/12/05 14:52:17;;;;;;;;;;;;;;;8.53;56.32;99007.41;10372083;28;20113;-62
2021/12/05 14:57:25;;;;;;;2.45;0.77;;;;;;;8.36;57.54;99017.75;10370584;28;19956;-61
2021/12/05 15:02:28;;;;;;;2.75;0.60;;;;;;;8.24;57.55;99016.19;10358378;28;20107;-62
2021/12/05 15:07:29;;;;;;;1.17;0.57;;;;;;;8.32;58.78;99035.75;10359761;28;20834;-62
2021/12/05 15:12:33;;;;;;;3.17;0.90;;;;;;;8.19;59.24;99032.50;10342959;28;20042;-63
2021/12/05 15:17:38;;;;;;;2.20;0.77;;;;;;;8.19;59.11;99047.59;10327519;28;20050;-65
2021/12/05 15:22:40;;;;;;;;;;;;;;;8.06;59.34;99046.03;10343079;28;20773;-64
2021/12/05 15:27:43;;;;;;;1.48;0.80;;;;;;;7.93;59.52;99041.00;10345368;28;20387;-63
2021/12/05 15:32:49;;;;;;;2.13;1.42;;;;;;;8.08;59.95;99060.00;10336099;28;20447;-63
2021/12/05 15:37:55;;;;;;;2.88;1.27;;;;;;;8.08;60.84;99065.28;10353256;28;20633;-63
2021/12/05 15:43:04;;;;;;;2.17;1.85;;;;;;;7.88;60.54;99071.50;10359377;28;20084;-63
2021/12/05 15:48:06;;;;;;;3.17;1.48;;;;;;;7.78;60.79;99080.28;10347327;28;20170;-61
2021/12/05 15:53:11;;;;;;;2.35;1.85;;;;;;;7.76;60.40;99078.72;10351570;28;20053;-64
2021/12/05 15:58:20;;;;;;;3.47;1.15;;;;;;;7.59;60.98;99090.78;10340407;28;20046;-63
2021/12/05 16:03:24;;;;;;;2.17;1.67;;;;;;;7.70;61.36;99093.34;10358951;28;20052;-64
2021/12/05 16:08:30;;;;;;;2.35;1.65;;;;;;;7.70;63.14;99097.81;10356636;28;20041;-62
2021/12/05 16:13:38;;;;;;;4.13;1.77;;;;;;;7.71;63.92;99100.31;10345201;28;20042;-63
2021/12/05 16:18:42;;;;;;;2.45;1.90;;;;;;;7.09;66.39;99110.03;10328390;28;20053;-61
2021/12/05 16:23:44;;;;;;;3.58;2.88;;;;;;;7.43;65.64;99113.31;10337023;28;20736;-61
2021/12/05 16:28:49;;;;;;;4.63;2.40;;;;;;;7.28;65.55;99113.75;10340428;28;20053;-61
2021/12/05 16:33:54;;;;;;;3.40;2.20;;;;;;;7.35;66.45;99121.06;10358392;28;20088;-61
2021/12/05 16:39:03;;;;;;;3.45;2.30;;;;;;;7.47;65.25;99126.28;10318415;28;20133;-62
2021/12/05 16:44:10;;;;;;;4.90;2.63;;;;;;;7.49;65.76;99135.78;10317647;28;20268;-62
2021/12/05 16:49:15;;;;;;;3.63;2.20;;;;;;;7.47;65.48;99134.22;10324513;28;20066;-61
2021/12/05 16:54:24;;;;;;;2.15;1.80;;;;;;;7.43;65.49;99138.91;10351982;28;20042;-63
2021/12/05 16:59:54;;;;;;;3.17;2.05;;;;;;;7.41;65.36;99130.28;10318413;28;20656;-60
2021/12/05 17:05:06;;;;;;;2.50;1.65;;;;;;;7.36;65.23;99143.91;10329737;28;20068;-60
2021/12/05 17:10:19;;;;;;;1.80;1.33;;;;;;;7.11;66.19;99153.06;10338883;28;20053;-62
2021/12/05 17:15:29;;;;;;;1.95;1.30;;;;;;;7.10;66.18;99155.84;10349094;28;20058;-61
2021/12/05 17:20:35;;;;;;;3.90;1.70;;;;;;;7.04;66.37;99144.81;10361126;28;20146;-61
2021/12/05 17:25:38;;;;;;;3.30;2.25;;;;;;;7.02;66.46;99157.31;10364310;28;20736;-62
2021/12/05 17:30:52;;;;;;;2.63;1.50;;;;;;;7.12;66.28;99161.88;10345829;28;20616;-60
2021/12/05 17:35:54;;;;;;;3.10;2.28;;;;;;;7.04;66.43;99171.28;10360721;28;20048;-61
2021/12/05 17:40:55;;;;;;;2.22;2.00;;;;;;;6.98;66.75;99186.81;10363084;28;20045;-61
2021/12/05 17:45:57;;;;;;;2.45;1.67;;;;;;;6.89;66.78;99183.97;10363041;28;20132;-65
2021/12/05 17:51:03;;;;;;;3.67;2.25;;;;;;;6.95;66.79;99192.34;10351228;28;20868;-61
2021/12/05 17:56:16;;;;;;;4.10;2.47;;;;;;;7.02;66.46;99202.31;10361443;28;20148;-62
2021/12/05 18:06:39;;;;;;;3.88;3.30;;;;;;;7.02;66.39;99214.72;10364895;28;20069;-62
2021/12/05 18:11:41;;;;;;;3.50;3.00;;;;;;;6.97;66.03;99206.31;10361388;28;20143;-61
2021/12/05 18:16:42;;;;;;;4.20;2.28;;;;;;;6.91;66.13;99197.06;10362208;28;20144;-62
2021/12/05 18:21:48;;;;;;;2.65;2.05;;;;;;;6.93;66.32;99213.66;10359838;28;20159;-63
2021/12/05 18:26:51;;;;;;;3.72;2.58;;;;;;;6.96;66.36;99226.63;10360780;28;20041;-61
2021/12/05 18:31:54;;;;;;;3.95;2.45;;;;;;;6.93;66.47;99226.88;10346852;28;20239;-62
2021/12/05 18:36:58;;;;;;;4.32;3.65;;;;;;;6.98;66.97;99239.72;10356434;28;20791;-63
2021/12/05 18:42:05;;;;;;;3.65;3.13;;;;;;;6.94;67.29;99249.75;10356842;28;20052;-60
2021/12/05 18:47:07;;;;;;;4.10;3.70;;;;;;;6.88;67.16;99239.66;10356471;28;20069;-62
2021/12/05 18:52:09;;;;;;;5.40;4.40;;;;;;;6.93;67.19;99261.28;10357581;28;20530;-62
2021/12/05 18:57:18;;;;;;;7.05;5.10;;;;;;;6.91;67.52;99265.84;10358175;28;20542;-63
2021/12/05 19:13:02;;;;;;;6.63;5.68;;;;;;;6.66;68.37;99285.50;10345264;28;20490;-62
2021/12/05 19:18:04;;;;;;;5.95;5.35;;;;;;;6.69;68.50;99295.84;10362676;28;20057;-60
2021/12/05 19:23:05;;;;;;;6.20;5.18;;;;;;;6.61;68.99;99304.38;10369278;28;20413;-60
2021/12/05 19:28:09;;;;;;;5.65;4.40;;;;;;;6.48;69.42;99296.56;10372317;28;20058;-59
2021/12/05 19:33:13;;;;;;;5.72;4.75;;;;;;;6.49;69.55;99313.28;10367842;28;20060;-59
2021/12/05 19:38:23;;;;;;;5.50;5.07;;;;;;;6.46;69.87;99319.66;10370550;28;20052;-60
2021/12/05 19:43:28;;;;;;;6.70;6.00;;;;;;;6.44;69.77;99307.50;10364477;28;20061;-60
2021/12/05 19:48:30;;;;;;;5.97;5.32;;;;;;;6.48;70.13;99320.34;10359899;28;20743;-60
2021/12/05 19:53:31;;;;;;;5.50;4.97;;;;;;;6.44;69.99;99318.94;10360256;28;20045;-62
2021/12/05 19:58:34;;;;;;;6.55;5.53;;;;;;;6.43;69.88;99311.13;10345213;28;20618;-60
2021/12/05 20:03:38;;;;;;;5.90;5.30;;;;;;;6.48;69.66;99324.81;10366280;28;20442;-60
2021/12/05 20:08:41;;;;;;;6.13;5.53;;;;;;;6.46;70.19;99329.38;10366058;28;20138;-61
2021/12/05 20:13:43;;;;;;;8.20;7.07;;;;;;;6.33;70.18;99324.19;10368325;28;20068;-60
2021/12/05 20:18:45;;;;;;;6.03;5.43;;;;;;;6.45;70.16;99341.75;10361888;28;20057;-60
2021/12/05 20:23:47;;;;;;;7.10;6.40;;;;;;;6.48;70.36;99343.31;10365398;28;20750;-60
2021/12/05 20:28:51;;;;;;;6.72;6.03;;;;;;;6.37;70.32;99337.06;10368372;28;20045;-62
2021/12/05 20:33:55;;;;;;;7.60;6.90;;;;;;;6.39;70.20;99349.31;10355281;28;20046;-62
2021/12/05 20:38:56;;;;;;;7.05;6.22;;;;;;;6.28;70.59;99361.56;10348030;28;20049;-63
2021/12/05 20:50:20;;;;;;;7.63;6.93;;;;;;;6.25;70.96;99375.03;10368960;28;20053;-66
2021/12/05 20:55:22;;;;;;;8.75;7.95;;;;;;;6.25;70.87;99385.59;10361440;28;20045;-61
2021/12/05 21:00:31;;;;;;;8.00;7.30;;;;;;;6.25;71.20;99401.44;10318235;28;20440;-62
2021/12/05 21:05:36;;;;;;;8.55;7.65;;;;;;;6.19;71.17;99400.09;10298361;28;20097;-61
2021/12/05 21:10:50;;;;;;;7.20;6.28;;;;;;;6.18;70.97;99409.00;10334900;28;20136;-62
2021/12/05 21:15:52;;;;;;;6.67;6.07;;;;;;;6.23;70.92;99413.94;10335085;28;20409;-63
2021/12/05 21:20:58;;;;;;;7.43;6.63;;;;;;;6.11;71.07;99414.84;10335474;28;20056;-60
2021/12/05 21:26:01;;;;;;;6.90;6.30;;;;;;;6.16;71.69;99416.19;10330657;28;20046;-61
2021/12/05 21:31:04;;;;;;;7.57;6.88;;;;;;;6.12;71.20;99413.91;10333022;28;20505;-62
2021/12/05 21:36:07;;;;;;;6.97;6.30;;;;;;;6.18;71.15;99431.94;10334888;28;20049;-63
2021/12/05 21:41:11;;;;;;;7.32;6.20;;;;;;;6.13;70.76;99423.53;10334957;28;20062;-60
2021/12/05 21:46:14;;;;;;;7.17;6.47;;;;;;;6.20;70.68;99451.19;10329817;28;20501;-61
2021/12/05 21:51:16;;;;;;;6.10;5.50;;;;;;;6.17;70.70;99446.09;10332898;28;20058;-60
2021/12/05 21:56:19;;;;;;;6.40;4.85;;;;;;;6.04;70.52;99440.06;10312695;28;20050;-61
2021/12/05 22:01:22;;;;;;;5.97;5.38;;;;;;;6.11;71.13;99455.34;10312080;28;20046;-61
2021/12/05 22:06:25;;;;;;;5.85;5.22;;;;;;;5.97;71.07;99442.31;10306363;28;20532;-61
2021/12/05 22:11:27;;;;;;;4.70;4.30;;;;;;;6.09;70.61;99462.53;10307432;28;20647;-61
2021/12/05 22:16:28;;;;;;;6.85;6.10;;;;;;;6.03;70.97;99465.63;10325269;28;20095;-61
2021/12/05 22:21:34;;;;;;;5.90;5.25;;;;;;;6.08;71.23;99470.56;10329090;28;20042;-63
2021/12/05 22:26:39;;;;;;;5.88;5.10;;;;;;;6.06;70.99;99483.06;10324502;28;20049;-61
2021/12/05 22:31:43;;;;;;;5.75;4.28;;;;;;;6.00;71.06;99482.56;10331637;28;20121;-61
2021/12/05 22:36:45;;;;;;;6.20;4.80;;;;;;;5.86;71.14;99477.41;10359325;28;20116;-62
2021/12/05 22:41:46;;;;;;;5.38;4.85;;;;;;;5.91;70.97;99492.94;10350901;28;20137;-62
2021/12/05 22:46:48;;;;;;;5.22;4.13;;;;;;;5.87;70.94;99497.59;10366359;22;20132;-64
2021/12/05 22:51:50;;;;;;;3.78;3.38;;;;;;;5.85;71.00;99502.13;10329226;28;20537;-64
2021/12/05 22:56:51;;;;;;;4.82;4.43;;;;;;;5.82;71.17;99512.91;10328787;28;20057;-67
2021/12/05 23:01:53;;;;;;;5.63;4.03;;;;;;;5.73;71.38;99511.78;10350197;28;20135;-64
2021/12/05 23:06:57;;;;;;;5.13;4.13;;;;;;;5.63;71.56;99516.03;10349911;28;20100;-64
2021/12/05 23:11:58;;;;;;;4.70;3.90;;;;;;;5.59;71.81;99536.53;10350859;28;20049;-63
2021/12/05 23:17:00;;;;;;;5.50;4.22;;;;;;;5.49;72.16;99525.81;10353928;28;20531;-64
2021/12/05 23:22:05;;;;;;;4.70;4.30;;;;;;;5.41;72.55;99522.03;10333719;28;20056;-64
2021/12/05 23:27:08;;;;;;;4.90;4.47;;;;;;;5.42;72.67;99514.00;10348449;28;20133;-64
2021/12/05 23:32:30;;;;;;;5.35;4.43;;;;;;;5.50;71.93;99526.66;10328655;28;20050;-65
2021/12/05 23:37:32;;;;;;;5.57;4.40;;;;;;;5.43;72.02;99525.38;10343805;28;20137;-65
2021/12/05 23:42:34;;;;;;;5.28;4.78;;;;;;;5.14;73.54;99520.38;10335410;28;20058;-65
2021/12/05 23:47:36;;;;;;;5.35;4.85;;;;;;;5.32;73.51;99528.78;10328593;28;20459;-64
2021/12/05 23:52:38;;;;;;;5.80;4.47;;;;;;;5.21;73.24;99532.19;10347666;28;20053;-64
2021/12/05 23:57:42;;;;;;;6.43;5.35;;;;;;;5.18;72.98;99532.41;10352179;28;20084;-64
